Time;durP1;ratioP1;P1;durP2;ratioP2;P2;SDS_P1;SDS_P2;PMS_P1;PMS_P2;Temp;Humidity;BMP_temperature;BMP_pressure;BME280_temperature;BME280_humidity;BME280_pressure;Samples;Min_cycle;Max_cycle;Signal;HPM_P1;HPM_P2
2022/07/31 00:00:19;;;;;;;29.83;18.83;;;;;;;;;;5034576;28;20042;-81
2022/07/31 00:02:45;;;;;;;27.52;18.83;;;;;;;;;;5031873;28;20045;-80
2022/07/31 00:05:12;;;;;;;24.90;18.75;;;;;;;;;;5033241;28;20053;-80
2022/07/31 00:07:38;;;;;;;23.92;18.85;;;;;;;;;;5032614;28;20281;-81
2022/07/31 00:10:05;;;;;;;29.92;19.52;;;;;;;;;;5031547;28;20061;-79
2022/07/31 00:12:33;;;;;;;25.40;19.77;;;;;;;;;;5030824;28;20050;-82
2022/07/31 00:15:00;;;;;;;23.65;18.20;;;;;;;;;;5033102;28;20057;-80
2022/07/31 00:17:27;;;;;;;28.08;20.92;;;;;;;;;;5033164;28;20045;-80
2022/07/31 00:19:53;;;;;;;26.80;20.33;;;;;;;;;;5032083;28;20030;-79
2022/07/31 00:22:20;;;;;;;26.10;18.10;;;;;;;;;;5033023;28;20041;-80
2022/07/31 00:24:46;;;;;;;25.60;18.58;;;;;;;;;;5033620;28;20065;-81
2022/07/31 00:27:13;;;;;;;23.17;18.08;;;;;;;;;;5033725;28;20053;-80
2022/07/31 00:29:39;;;;;;;22.52;18.20;;;;;;;;;;5034393;28;20145;-81
2022/07/31 00:32:06;;;;;;;26.88;17.58;;;;;;;;;;5033427;28;20050;-80
2022/07/31 00:34:32;;;;;;;27.83;18.00;;;;;;;;;;5029620;28;20050;-82
2022/07/31 00:36:58;;;;;;;25.88;17.02;;;;;;;;;;5015400;28;20080;-80
2022/07/31 00:39:26;;;;;;;20.88;17.25;;;;;;;;;;5034201;28;20056;-80
2022/07/31 00:41:53;;;;;;;23.80;15.98;;;;;;;;;;5034819;28;20034;-80
2022/07/31 00:44:20;;;;;;;27.27;16.38;;;;;;;;;;5034865;28;20479;-82
2022/07/31 00:46:46;;;;;;;23.00;16.95;;;;;;;;;;5034420;28;20029;-80
2022/07/31 00:49:14;;;;;;;20.00;14.82;;;;;;;;;;5032650;28;20077;-81
2022/07/31 00:51:41;;;;;;;22.48;15.55;;;;;;;;;;5034389;28;20065;-81
2022/07/31 00:54:07;;;;;;;22.75;17.02;;;;;;;;;;5031634;28;20072;-80
2022/07/31 00:56:34;;;;;;;25.13;16.10;;;;;;;;;;5031796;28;20045;-80
2022/07/31 00:59:01;;;;;;;20.75;15.55;;;;;;;;;;5025583;28;20057;-79
2022/07/31 01:01:29;;;;;;;22.55;16.88;;;;;;;;;;5021269;28;20057;-79
2022/07/31 01:03:56;;;;;;;30.98;18.95;;;;;;;;;;5023305;28;20297;-79
2022/07/31 01:06:22;;;;;;;34.47;20.38;;;;;;;;;;5029713;28;20049;-80
2022/07/31 01:08:48;;;;;;;39.05;24.33;;;;;;;;;;5029837;28;20061;-80
2022/07/31 01:11:18;;;;;;;35.92;24.42;;;;;;;;;;5030916;28;20545;-80
2022/07/31 01:13:47;;;;;;;31.73;20.77;;;;;;;;;;5029091;28;20578;-81
2022/07/31 01:16:15;;;;;;;28.85;18.77;;;;;;;;;;5031612;28;20055;-80
2022/07/31 01:18:42;;;;;;;29.20;19.80;;;;;;;;;;5014439;28;20045;-81
2022/07/31 01:21:12;;;;;;;23.67;17.35;;;;;;;;;;5029909;28;20213;-80
2022/07/31 01:23:45;;;;;;;31.13;18.83;;;;;;;;;;5030725;28;20049;-81
2022/07/31 01:26:32;;;;;;;29.33;17.13;;;;;;;;;;5032048;28;20050;-80
2022/07/31 01:29:01;;;;;;;23.38;16.70;;;;;;;;;;5029808;28;20033;-81
2022/07/31 01:31:47;;;;;;;30.17;19.30;;;;;;;;;;5013749;28;20046;-80
2022/07/31 01:34:26;;;;;;;24.80;17.27;;;;;;;;;;5031002;28;20049;-81
2022/07/31 01:36:56;;;;;;;21.70;16.75;;;;;;;;;;5031903;28;20514;-81
2022/07/31 01:39:22;;;;;;;22.15;16.42;;;;;;;;;;5014111;28;20069;-80
2022/07/31 01:41:50;;;;;;;20.13;15.95;;;;;;;;;;5012366;28;20085;-81
2022/07/31 01:44:17;;;;;;;23.15;15.95;;;;;;;;;;5031478;28;20050;-80
2022/07/31 01:46:45;;;;;;;22.35;16.52;;;;;;;;;;5031526;28;20050;-80
2022/07/31 01:49:12;;;;;;;24.45;16.70;;;;;;;;;;5028976;28;20148;-81
2022/07/31 01:51:40;;;;;;;26.20;18.23;;;;;;;;;;5028149;28;20050;-80
2022/07/31 01:54:07;;;;;;;24.40;17.08;;;;;;;;;;5028532;28;20045;-79
2022/07/31 01:56:36;;;;;;;25.45;16.67;;;;;;;;;;5030266;28;20069;-81
2022/07/31 01:59:03;;;;;;;21.13;15.63;;;;;;;;;;5030959;28;20053;-81
2022/07/31 02:01:46;;;;;;;23.00;16.00;;;;;;;;;;5030656;28;20080;-82
2022/07/31 02:04:17;;;;;;;23.00;15.70;;;;;;;;;;5024348;28;20208;-81
2022/07/31 02:06:45;;;;;;;24.48;17.95;;;;;;;;;;5030474;28;20133;-81
2022/07/31 02:09:12;;;;;;;24.08;16.77;;;;;;;;;;5031597;28;20050;-80
2022/07/31 02:11:38;;;;;;;22.27;16.20;;;;;;;;;;5031050;28;20057;-81
2022/07/31 02:14:20;;;;;;;25.02;15.90;;;;;;;;;;5018248;28;20050;-81
2022/07/31 02:16:47;;;;;;;21.15;16.00;;;;;;;;;;5032431;28;20259;-79
2022/07/31 02:19:13;;;;;;;19.73;14.80;;;;;;;;;;5028156;28;20054;-82
2022/07/31 02:21:40;;;;;;;19.65;15.10;;;;;;;;;;5031735;28;20057;-79
2022/07/31 02:24:08;;;;;;;25.85;15.75;;;;;;;;;;5033762;28;20052;-80
2022/07/31 02:26:35;;;;;;;22.77;15.35;;;;;;;;;;5034380;28;20342;-80
2022/07/31 02:29:02;;;;;;;23.27;15.80;;;;;;;;;;5033307;28;20053;-80
2022/07/31 02:31:30;;;;;;;22.40;15.90;;;;;;;;;;5033714;28;20073;-80
2022/07/31 02:33:57;;;;;;;22.88;16.33;;;;;;;;;;5031245;28;20070;-80
2022/07/31 02:36:24;;;;;;;23.27;15.65;;;;;;;;;;5033605;28;20042;-79
2022/07/31 02:38:51;;;;;;;20.35;15.52;;;;;;;;;;5030043;28;20033;-79
2022/07/31 02:41:19;;;;;;;29.35;17.52;;;;;;;;;;5027092;28;20078;-80
2022/07/31 02:43:45;;;;;;;21.65;15.45;;;;;;;;;;5025920;28;20073;-80
2022/07/31 02:46:12;;;;;;;22.20;16.88;;;;;;;;;;5028452;28;20046;-80
2022/07/31 02:48:39;;;;;;;25.27;17.80;;;;;;;;;;5029626;28;20046;-79
2022/07/31 02:51:07;;;;;;;26.17;17.15;;;;;;;;;;5025291;28;20042;-81
2022/07/31 02:53:36;;;;;;;21.77;17.25;;;;;;;;;;5030608;28;20041;-80
2022/07/31 02:56:04;;;;;;;23.83;16.48;;;;;;;;;;5029741;28;20065;-80
2022/07/31 02:58:30;;;;;;;19.65;15.82;;;;;;;;;;5027112;28;20260;-81
2022/07/31 03:00:58;;;;;;;25.13;16.38;;;;;;;;;;5024410;28;20057;-81
2022/07/31 03:03:24;;;;;;;24.42;15.57;;;;;;;;;;5032204;28;20423;-81
2022/07/31 03:05:51;;;;;;;22.52;15.57;;;;;;;;;;5033930;28;20041;-80
2022/07/31 03:08:20;;;;;;;22.35;16.00;;;;;;;;;;5033492;28;20232;-79
2022/07/31 03:10:47;;;;;;;18.08;15.00;;;;;;;;;;5026220;28;20046;-81
2022/07/31 03:13:14;;;;;;;19.13;15.13;;;;;;;;;;5026176;28;20105;-82
2022/07/31 03:15:42;;;;;;;23.30;16.17;;;;;;;;;;5024539;28;20077;-79
2022/07/31 03:18:20;;;;;;;26.70;15.60;;;;;;;;;;5028463;28;20058;-80
2022/07/31 03:20:50;;;;;;;23.70;16.10;;;;;;;;;;5025076;28;20117;-80
2022/07/31 03:23:19;;;;;;;23.42;16.65;;;;;;;;;;5025798;28;20064;-81
2022/07/31 03:25:48;;;;;;;27.45;15.35;;;;;;;;;;5024477;28;20077;-80
2022/07/31 03:28:14;;;;;;;21.88;15.30;;;;;;;;;;5021533;28;20224;-81
2022/07/31 03:30:40;;;;;;;26.20;16.77;;;;;;;;;;5020508;28;20114;-81
2022/07/31 03:33:07;;;;;;;28.55;16.25;;;;;;;;;;5021347;28;20053;-79
2022/07/31 03:35:33;;;;;;;32.38;16.25;;;;;;;;;;5022330;28;20054;-79
2022/07/31 03:38:09;;;;;;;28.05;16.75;;;;;;;;;;5018262;28;20049;-78
2022/07/31 03:40:56;;;;;;;25.80;16.05;;;;;;;;;;5017381;28;20084;-80
2022/07/31 03:43:23;;;;;;;25.23;16.08;;;;;;;;;;5015803;28;20045;-79
2022/07/31 03:45:50;;;;;;;28.95;15.73;;;;;;;;;;5023686;28;20046;-80
2022/07/31 03:48:17;;;;;;;25.00;15.70;;;;;;;;;;5028590;28;20061;-81
2022/07/31 03:50:43;;;;;;;26.25;15.23;;;;;;;;;;5027368;28;20050;-80
2022/07/31 03:53:10;;;;;;;24.38;15.82;;;;;;;;;;5026467;28;20065;-81
2022/07/31 03:55:38;;;;;;;22.90;15.65;;;;;;;;;;5025809;28;20050;-79
2022/07/31 03:58:05;;;;;;;23.10;16.33;;;;;;;;;;5027295;28;20282;-80
2022/07/31 04:00:32;;;;;;;20.35;16.95;;;;;;;;;;5028656;28;20050;-81
2022/07/31 04:03:03;;;;;;;22.27;16.88;;;;;;;;;;5023318;28;20050;-81
2022/07/31 04:05:31;;;;;;;23.05;16.52;;;;;;;;;;5017883;28;20062;-79
2022/07/31 04:07:58;;;;;;;27.45;16.42;;;;;;;;;;5021741;28;20488;-79
2022/07/31 04:10:25;;;;;;;34.00;16.02;;;;;;;;;;5025526;28;20089;-80
2022/07/31 04:12:51;;;;;;;26.38;15.15;;;;;;;;;;5027805;28;20049;-80
2022/07/31 04:15:18;;;;;;;32.88;15.45;;;;;;;;;;5028193;28;20050;-81
2022/07/31 04:17:44;;;;;;;27.15;15.32;;;;;;;;;;5028437;28;20076;-80
2022/07/31 04:20:11;;;;;;;25.60;15.10;;;;;;;;;;5026836;28;20073;-81
2022/07/31 04:22:37;;;;;;;22.70;15.38;;;;;;;;;;5027403;28;20057;-80
2022/07/31 04:25:05;;;;;;;20.52;14.25;;;;;;;;;;5028459;28;20064;-80
2022/07/31 04:27:31;;;;;;;24.00;14.88;;;;;;;;;;5026010;28;20050;-80
2022/07/31 04:29:58;;;;;;;27.25;16.50;;;;;;;;;;5030835;28;20054;-80
2022/07/31 04:32:25;;;;;;;26.33;16.02;;;;;;;;;;5031123;28;20061;-81
2022/07/31 04:34:51;;;;;;;24.65;17.15;;;;;;;;;;5026719;28;20102;-82
2022/07/31 04:37:21;;;;;;;21.65;15.35;;;;;;;;;;5029546;28;20053;-79
2022/07/31 04:39:47;;;;;;;25.45;17.35;;;;;;;;;;5027124;28;20054;-80
2022/07/31 04:42:14;;;;;;;22.65;16.48;;;;;;;;;;5030903;28;20069;-80
2022/07/31 04:44:41;;;;;;;24.13;15.85;;;;;;;;;;5028126;28;20058;-80
2022/07/31 04:47:07;;;;;;;20.95;15.82;;;;;;;;;;5025853;28;20088;-79
2022/07/31 04:49:34;;;;;;;21.45;15.55;;;;;;;;;;5026086;28;20080;-80
2022/07/31 04:52:01;;;;;;;19.98;13.75;;;;;;;;;;5029767;28;20060;-81
2022/07/31 04:54:28;;;;;;;20.95;13.98;;;;;;;;;;5031199;28;20179;-80
2022/07/31 04:56:55;;;;;;;20.45;14.68;;;;;;;;;;5028079;28;20054;-79
2022/07/31 04:59:22;;;;;;;20.15;14.63;;;;;;;;;;5028227;28;20056;-79
2022/07/31 05:02:08;;;;;;;19.55;13.57;;;;;;;;;;5032164;28;20136;-81
2022/07/31 05:04:35;;;;;;;17.77;12.55;;;;;;;;;;5030740;28;20034;-80
2022/07/31 05:07:01;;;;;;;18.35;14.55;;;;;;;;;;5031905;28;20046;-80
2022/07/31 05:09:32;;;;;;;16.35;13.15;;;;;;;;;;5032285;28;20048;-80
2022/07/31 05:12:01;;;;;;;20.30;13.77;;;;;;;;;;5029484;28;20049;-80
2022/07/31 05:14:29;;;;;;;16.38;12.18;;;;;;;;;;5026830;28;20291;-79
2022/07/31 05:16:56;;;;;;;16.83;11.70;;;;;;;;;;5017972;28;20100;-79
2022/07/31 05:19:22;;;;;;;13.65;10.38;;;;;;;;;;5027478;28;20049;-80
2022/07/31 05:21:49;;;;;;;20.63;11.05;;;;;;;;;;5022268;28;20074;-79
2022/07/31 05:24:21;;;;;;;15.23;10.20;;;;;;;;;;5018097;28;20054;-79
2022/07/31 05:27:00;;;;;;;11.90;9.75;;;;;;;;;;5019098;28;20050;-79
2022/07/31 05:29:26;;;;;;;11.77;9.55;;;;;;;;;;5018452;28;20081;-81
2022/07/31 05:31:53;;;;;;;12.73;8.70;;;;;;;;;;5019796;28;20064;-78
2022/07/31 05:34:25;;;;;;;11.45;8.85;;;;;;;;;;5017237;28;20046;-79
2022/07/31 05:36:55;;;;;;;16.58;8.20;;;;;;;;;;5021587;28;20120;-79
2022/07/31 05:39:21;;;;;;;12.10;7.78;;;;;;;;;;5016568;28;20165;-79
2022/07/31 05:41:49;;;;;;;11.80;8.30;;;;;;;;;;5017906;28;20046;-78
2022/07/31 05:44:16;;;;;;;12.95;8.30;;;;;;;;;;5018268;28;20050;-78
2022/07/31 05:46:42;;;;;;;14.20;8.40;;;;;;;;;;5022238;28;20066;-79
2022/07/31 05:49:09;;;;;;;10.95;8.13;;;;;;;;;;5027089;28;20053;-80
2022/07/31 05:51:35;;;;;;;10.27;7.35;;;;;;;;;;5028552;28;20128;-80
2022/07/31 05:54:02;;;;;;;13.52;7.60;;;;;;;;;;5022993;28;20050;-79
2022/07/31 05:56:28;;;;;;;9.18;7.20;;;;;;;;;;5009681;28;20329;-78
2022/07/31 05:58:55;;;;;;;11.57;7.38;;;;;;;;;;5019111;28;20136;-81
2022/07/31 06:01:21;;;;;;;12.63;7.40;;;;;;;;;;5017055;28;20073;-78
2022/07/31 06:03:48;;;;;;;10.40;6.65;;;;;;;;;;5021670;28;20084;-78
2022/07/31 06:06:17;;;;;;;12.63;7.18;;;;;;;;;;5020358;28;20060;-80
2022/07/31 06:08:44;;;;;;;10.73;7.00;;;;;;;;;;5023202;28;20045;-80
2022/07/31 06:11:13;;;;;;;13.77;6.85;;;;;;;;;;5026609;28;20053;-80
2022/07/31 06:13:42;;;;;;;10.75;7.22;;;;;;;;;;5027316;28;20044;-80
2022/07/31 06:16:12;;;;;;;13.77;7.20;;;;;;;;;;5030025;28;20072;-80
2022/07/31 06:18:39;;;;;;;12.48;6.50;;;;;;;;;;5022906;28;20038;-79
2022/07/31 06:21:05;;;;;;;10.55;6.60;;;;;;;;;;5025558;28;20056;-79
2022/07/31 06:23:32;;;;;;;14.52;6.78;;;;;;;;;;5024744;28;20046;-78
2022/07/31 06:25:58;;;;;;;9.20;6.47;;;;;;;;;;5023084;28;20046;-80
2022/07/31 06:28:25;;;;;;;12.02;6.85;;;;;;;;;;5025355;28;20073;-80
2022/07/31 06:31:19;;;;;;;10.68;6.90;;;;;;;;;;5035548;28;20034;-81
2022/07/31 06:33:46;;;;;;;11.30;6.88;;;;;;;;;;5034552;28;20034;-81
2022/07/31 06:36:14;;;;;;;9.00;6.65;;;;;;;;;;5025295;28;20113;-79
2022/07/31 06:38:40;;;;;;;11.00;7.25;;;;;;;;;;5015508;28;20555;-78
2022/07/31 06:41:06;;;;;;;10.95;6.10;;;;;;;;;;4998378;28;20385;-78
2022/07/31 06:43:33;;;;;;;12.00;7.13;;;;;;;;;;5018927;28;20214;-79
2022/07/31 06:45:59;;;;;;;11.77;6.63;;;;;;;;;;5016912;28;20077;-79
2022/07/31 06:48:26;;;;;;;13.10;7.20;;;;;;;;;;5018540;28;20085;-78
2022/07/31 06:50:53;;;;;;;12.43;6.55;;;;;;;;;;5017550;28;20124;-78
2022/07/31 06:53:40;;;;;;;12.20;7.20;;;;;;;;;;5018737;28;20050;-79
2022/07/31 06:56:06;;;;;;;12.57;6.78;;;;;;;;;;5019977;28;20046;-79
2022/07/31 06:58:33;;;;;;;11.95;6.82;;;;;;;;;;5018298;28;20050;-79
2022/07/31 07:00:59;;;;;;;10.48;6.47;;;;;;;;;;5017104;28;20080;-79
2022/07/31 07:03:25;;;;;;;11.23;6.68;;;;;;;;;;5019479;28;20084;-79
2022/07/31 07:05:52;;;;;;;11.02;6.28;;;;;;;;;;5020006;28;20108;-79
2022/07/31 07:08:18;;;;;;;12.10;6.10;;;;;;;;;;5007221;28;20057;-79
2022/07/31 07:10:45;;;;;;;11.57;7.00;;;;;;;;;;5025607;28;20050;-79
2022/07/31 07:13:11;;;;;;;11.30;6.72;;;;;;;;;;5025029;28;20050;-81
2022/07/31 07:15:37;;;;;;;14.52;6.82;;;;;;;;;;5021686;28;20049;-80
2022/07/31 07:18:04;;;;;;;17.13;6.18;;;;;;;;;;5025149;28;20046;-80
2022/07/31 07:20:31;;;;;;;11.50;6.65;;;;;;;;;;5018939;28;20108;-79
2022/07/31 07:22:57;;;;;;;8.82;6.30;;;;;;;;;;5023130;28;20050;-81
2022/07/31 07:25:24;;;;;;;10.18;6.30;;;;;;;;;;5019869;28;20046;-80
2022/07/31 07:27:50;;;;;;;12.05;6.75;;;;;;;;;;5020430;28;20061;-79
2022/07/31 07:30:17;;;;;;;9.65;6.15;;;;;;;;;;5019012;28;20093;-79
2022/07/31 07:32:43;;;;;;;12.45;7.00;;;;;;;;;;5018211;28;20054;-80
2022/07/31 07:35:11;;;;;;;12.25;7.03;;;;;;;;;;5021174;28;20050;-80
2022/07/31 07:37:38;;;;;;;12.00;6.97;;;;;;;;;;5032060;28;20049;-80
2022/07/31 07:40:05;;;;;;;9.52;6.78;;;;;;;;;;5040967;28;20050;-80
2022/07/31 07:42:32;;;;;;;10.40;6.32;;;;;;;;;;5044242;28;20080;-80
2022/07/31 07:44:58;;;;;;;14.73;7.00;;;;;;;;;;5027131;28;20061;-80
2022/07/31 07:47:27;;;;;;;11.25;6.78;;;;;;;;;;5049187;28;20069;-80
2022/07/31 07:50:14;;;;;;;17.08;7.18;;;;;;;;;;5047650;28;20073;-80
2022/07/31 07:52:41;;;;;;;12.75;7.38;;;;;;;;;;5038339;28;20070;-79
2022/07/31 07:55:11;;;;;;;15.18;7.05;;;;;;;;;;5020951;28;20050;-79
2022/07/31 07:57:37;;;;;;;11.32;6.97;;;;;;;;;;5023801;28;20038;-81
2022/07/31 08:00:05;;;;;;;11.73;7.28;;;;;;;;;;5025573;28;20049;-79
2022/07/31 08:02:32;;;;;;;14.00;7.82;;;;;;;;;;5021151;28;20487;-78
2022/07/31 08:04:59;;;;;;;9.48;7.45;;;;;;;;;;5030005;28;20050;-80
2022/07/31 08:07:26;;;;;;;19.30;7.57;;;;;;;;;;5030851;28;20054;-81
2022/07/31 08:10:11;;;;;;;13.73;7.55;;;;;;;;;;5027723;28;20049;-81
2022/07/31 08:12:38;;;;;;;12.95;7.22;;;;;;;;;;5031914;28;20061;-80
2022/07/31 08:15:05;;;;;;;11.25;7.38;;;;;;;;;;5031650;28;20046;-79
2022/07/31 08:17:31;;;;;;;12.20;7.22;;;;;;;;;;5024767;28;20041;-79
2022/07/31 08:19:57;;;;;;;10.57;6.93;;;;;;;;;;5023459;28;20060;-79
2022/07/31 08:22:24;;;;;;;15.93;6.80;;;;;;;;;;5023630;28;20046;-79
2022/07/31 08:24:51;;;;;;;12.90;6.35;;;;;;;;;;5025681;28;20339;-79
2022/07/31 08:27:23;;;;;;;14.43;6.93;;;;;;;;;;5026029;28;20088;-79
2022/07/31 08:30:06;;;;;;;13.02;7.05;;;;;;;;;;5026116;28;20136;-80
2022/07/31 08:32:33;;;;;;;12.07;7.40;;;;;;;;;;5023056;28;20066;-79
2022/07/31 08:35:01;;;;;;;10.05;6.30;;;;;;;;;;5024245;28;20104;-80
2022/07/31 08:37:28;;;;;;;11.27;6.95;;;;;;;;;;5025865;28;20471;-81
2022/07/31 08:40:15;;;;;;;16.50;6.45;;;;;;;;;;5027297;28;20137;-79
2022/07/31 08:42:43;;;;;;;10.52;6.57;;;;;;;;;;5019302;28;20046;-78
2022/07/31 08:45:10;;;;;;;14.57;6.65;;;;;;;;;;5024676;28;20049;-80
2022/07/31 08:47:37;;;;;;;10.68;6.28;;;;;;;;;;5025259;28;20046;-79
2022/07/31 08:50:04;;;;;;;11.18;6.30;;;;;;;;;;5021790;28;20306;-77
2022/07/31 08:52:32;;;;;;;13.90;6.28;;;;;;;;;;5020171;28;20046;-79
2022/07/31 08:55:00;;;;;;;11.93;6.47;;;;;;;;;;5021609;28;20045;-80
2022/07/31 08:57:26;;;;;;;12.00;6.50;;;;;;;;;;5022020;28;20105;-79
2022/07/31 08:59:54;;;;;;;10.57;6.13;;;;;;;;;;5022330;28;20057;-79
2022/07/31 09:02:21;;;;;;;9.20;5.60;;;;;;;;;;5022670;28;20481;-80
2022/07/31 09:04:48;;;;;;;10.27;5.97;;;;;;;;;;5022166;28;20073;-79
2022/07/31 09:07:18;;;;;;;8.55;5.78;;;;;;;;;;5022981;28;20053;-79
2022/07/31 09:09:46;;;;;;;8.75;5.20;;;;;;;;;;5022191;28;20057;-78
2022/07/31 09:12:32;;;;;;;8.38;5.25;;;;;;;;;;5027317;28;20058;-78
2022/07/31 09:15:00;;;;;;;9.05;5.60;;;;;;;;;;5025611;28;20119;-79
2022/07/31 09:17:34;;;;;;;10.25;5.38;;;;;;;;;;5023858;28;20057;-80
2022/07/31 09:20:00;;;;;;;8.85;5.50;;;;;;;;;;5026452;28;20057;-81
2022/07/31 09:22:28;;;;;;;12.88;5.22;;;;;;;;;;5029844;28;20049;-79
2022/07/31 09:25:04;;;;;;;13.20;4.40;;;;;;;;;;5024885;28;20158;-78
2022/07/31 09:27:31;;;;;;;9.52;5.38;;;;;;;;;;5027558;28;20049;-80
2022/07/31 09:29:57;;;;;;;10.80;4.63;;;;;;;;;;5024023;28;20061;-80
2022/07/31 09:32:24;;;;;;;9.60;4.80;;;;;;;;;;5020769;28;20046;-79
2022/07/31 09:34:50;;;;;;;8.13;4.35;;;;;;;;;;5024321;28;20061;-79
2022/07/31 09:37:18;;;;;;;12.07;4.30;;;;;;;;;;5024979;28;20046;-79
2022/07/31 09:39:51;;;;;;;9.35;4.10;;;;;;;;;;5023871;28;20053;-79
2022/07/31 09:42:18;;;;;;;9.00;4.50;;;;;;;;;;5018799;28;20422;-79
2022/07/31 09:44:46;;;;;;;10.30;4.90;;;;;;;;;;5029164;28;20038;-80
2022/07/31 09:47:25;;;;;;;9.68;4.35;;;;;;;;;;5026464;28;20064;-79
2022/07/31 09:49:53;;;;;;;12.80;4.70;;;;;;;;;;5029442;28;20069;-81
2022/07/31 09:52:20;;;;;;;8.73;3.75;;;;;;;;;;5029317;28;20065;-79
2022/07/31 09:54:47;;;;;;;11.88;4.32;;;;;;;;;;5032209;28;20045;-79
2022/07/31 09:57:14;;;;;;;12.80;4.30;;;;;;;;;;5033214;28;20100;-80
2022/07/31 09:59:40;;;;;;;8.73;4.22;;;;;;;;;;5034500;28;20046;-80
2022/07/31 10:02:07;;;;;;;10.00;4.00;;;;;;;;;;5027803;28;20586;-80
2022/07/31 10:04:36;;;;;;;9.00;4.00;;;;;;;;;;5018374;28;20042;-79
2022/07/31 10:07:03;;;;;;;12.25;3.78;;;;;;;;;;5016812;28;20145;-80
2022/07/31 10:09:33;;;;;;;14.98;4.50;;;;;;;;;;5021795;28;20529;-79
2022/07/31 10:12:00;;;;;;;6.13;3.78;;;;;;;;;;5027507;28;20049;-79
2022/07/31 10:14:30;;;;;;;8.55;3.38;;;;;;;;;;5027439;28;20041;-80
2022/07/31 10:16:58;;;;;;;7.03;3.33;;;;;;;;;;5028341;28;20077;-80
2022/07/31 10:19:26;;;;;;;7.43;3.50;;;;;;;;;;5026856;28;20046;-80
2022/07/31 10:22:00;;;;;;;9.25;3.13;;;;;;;;;;5028160;28;20049;-81
2022/07/31 10:24:27;;;;;;;6.95;3.30;;;;;;;;;;5024392;28;20050;-80
2022/07/31 10:26:57;;;;;;;11.05;3.63;;;;;;;;;;5023895;28;20454;-80
2022/07/31 10:29:29;;;;;;;9.93;3.40;;;;;;;;;;5023461;28;20053;-79
2022/07/31 10:31:59;;;;;;;8.15;3.03;;;;;;;;;;5024359;28;20057;-79
2022/07/31 10:34:26;;;;;;;13.23;3.38;;;;;;;;;;5019179;28;20053;-79
2022/07/31 10:36:56;;;;;;;6.07;3.20;;;;;;;;;;5019386;28;20081;-79
2022/07/31 10:39:23;;;;;;;7.78;2.80;;;;;;;;;;5024989;28;20528;-78
2022/07/31 10:41:58;;;;;;;7.03;3.00;;;;;;;;;;5024198;28;20050;-78
2022/07/31 10:44:38;;;;;;;9.45;3.40;;;;;;;;;;5024184;28;20056;-80
2022/07/31 10:47:11;;;;;;;7.20;3.08;;;;;;;;;;5026334;28;20049;-79
2022/07/31 10:49:39;;;;;;;9.68;3.05;;;;;;;;;;5017795;28;20050;-78
2022/07/31 10:52:06;;;;;;;6.95;2.60;;;;;;;;;;5024151;28;20073;-79
2022/07/31 10:54:39;;;;;;;6.18;3.30;;;;;;;;;;5024236;28;20061;-78
2022/07/31 10:57:05;;;;;;;9.85;2.88;;;;;;;;;;5026960;28;20045;-79
2022/07/31 10:59:33;;;;;;;7.55;2.97;;;;;;;;;;5027597;28;20088;-79
2022/07/31 11:01:59;;;;;;;4.45;2.72;;;;;;;;;;5026487;28;20070;-79
2022/07/31 11:04:26;;;;;;;5.55;2.65;;;;;;;;;;5022928;28;20110;-80
2022/07/31 11:06:53;;;;;;;6.38;2.40;;;;;;;;;;5027040;28;20054;-80
2022/07/31 11:09:23;;;;;;;5.82;2.88;;;;;;;;;;5020064;28;20053;-80
2022/07/31 11:11:50;;;;;;;8.68;2.80;;;;;;;;;;5026643;28;20049;-79
2022/07/31 11:14:17;;;;;;;4.82;2.55;;;;;;;;;;5019390;28;20062;-79
2022/07/31 11:16:49;;;;;;;9.93;2.90;;;;;;;;;;5024646;28;20046;-79
2022/07/31 11:19:16;;;;;;;9.27;2.72;;;;;;;;;;5024500;28;20111;-81
2022/07/31 11:21:42;;;;;;;6.03;2.40;;;;;;;;;;5024301;28;20046;-80
2022/07/31 11:24:17;;;;;;;6.53;2.60;;;;;;;;;;5024083;28;20050;-79
2022/07/31 11:26:53;;;;;;;4.10;2.58;;;;;;;;;;5020510;28;20061;-80
2022/07/31 11:29:33;;;;;;;10.07;2.70;;;;;;;;;;5027429;28;20053;-80
2022/07/31 11:32:20;;;;;;;5.00;2.60;;;;;;;;;;5027539;28;20061;-80
2022/07/31 11:34:54;;;;;;;7.28;2.10;;;;;;;;;;5026652;28;20045;-80
2022/07/31 11:37:27;;;;;;;3.78;2.25;;;;;;;;;;5030768;28;20046;-79
2022/07/31 11:40:13;;;;;;;5.50;1.90;;;;;;;;;;5029300;28;20050;-79
2022/07/31 11:42:45;;;;;;;3.95;2.20;;;;;;;;;;5020077;28;20115;-79
2022/07/31 11:45:30;;;;;;;4.13;2.25;;;;;;;;;;5024598;28;20081;-79
2022/07/31 11:47:58;;;;;;;4.95;1.60;;;;;;;;;;5027551;28;20109;-80
2022/07/31 11:50:44;;;;;;;4.80;1.70;;;;;;;;;;5023925;28;20111;-79
2022/07/31 11:53:11;;;;;;;6.22;1.75;;;;;;;;;;5029954;28;20046;-78
2022/07/31 11:55:45;;;;;;;6.05;1.70;;;;;;;;;;5027110;28;20060;-78
2022/07/31 11:58:12;;;;;;;4.38;1.95;;;;;;;;;;5022467;28;20045;-79
2022/07/31 12:00:44;;;;;;;2.63;1.77;;;;;;;;;;5028398;28;20034;-79
2022/07/31 12:03:11;;;;;;;8.20;1.67;;;;;;;;;;5031345;28;20046;-80
2022/07/31 12:05:47;;;;;;;6.80;2.08;;;;;;;;;;5028324;28;20053;-80
2022/07/31 12:08:14;;;;;;;5.30;1.85;;;;;;;;;;5036804;28;20064;-80
2022/07/31 12:10:40;;;;;;;4.38;1.63;;;;;;;;;;5034209;28;20058;-80
2022/07/31 12:13:11;;;;;;;7.55;1.98;;;;;;;;;;5019688;28;20108;-77
2022/07/31 12:15:52;;;;;;;2.33;1.60;;;;;;;;;;5021117;28;20069;-80
2022/07/31 12:18:18;;;;;;;5.18;1.70;;;;;;;;;;5015636;28;20060;-79
2022/07/31 12:21:14;;;;;;;8.32;2.08;;;;;;;;;;5020320;28;20222;-79
2022/07/31 12:23:50;;;;;;;5.80;1.90;;;;;;;;;;5010152;28;20099;-79
2022/07/31 12:26:21;;;;;;;6.47;2.00;;;;;;;;;;5019714;28;20045;-79
2022/07/31 12:29:02;;;;;;;5.50;1.85;;;;;;;;;;5024022;28;20509;-79
2022/07/31 12:31:30;;;;;;;8.90;1.90;;;;;;;;;;5023416;28;20815;-80
2022/07/31 12:33:56;;;;;;;3.75;2.00;;;;;;;;;;5019548;28;20112;-80
2022/07/31 12:36:23;;;;;;;5.07;1.40;;;;;;;;;;5022394;28;20230;-79
2022/07/31 12:38:59;;;;;;;5.30;1.50;;;;;;;;;;5024272;28;20046;-79
2022/07/31 12:41:26;;;;;;;7.45;1.42;;;;;;;;;;5023772;28;20427;-78
2022/07/31 12:43:53;;;;;;;2.75;1.60;;;;;;;;;;5025262;28;20050;-79
2022/07/31 12:46:34;;;;;;;3.25;1.50;;;;;;;;;;5025750;28;20042;-78
2022/07/31 12:49:02;;;;;;;2.35;1.50;;;;;;;;;;5022947;28;20049;-78
2022/07/31 12:51:31;;;;;;;4.53;1.50;;;;;;;;;;5024774;28;20046;-79
2022/07/31 12:54:12;;;;;;;3.92;1.40;;;;;;;;;;5021582;28;20056;-80
2022/07/31 12:56:39;;;;;;;5.63;1.42;;;;;;;;;;5022007;28;20045;-80
2022/07/31 12:59:07;;;;;;;3.10;1.60;;;;;;;;;;5020564;28;20050;-78
2022/07/31 13:01:33;;;;;;;2.63;1.48;;;;;;;;;;5019903;28;20081;-80
2022/07/31 13:04:00;;;;;;;2.35;1.20;;;;;;;;;;5022907;28;20072;-81
2022/07/31 13:06:29;;;;;;;4.60;1.63;;;;;;;;;;5021807;28;20053;-79
2022/07/31 13:08:55;;;;;;;2.67;1.30;;;;;;;;;;5017808;28;20042;-78
2022/07/31 13:11:24;;;;;;;3.25;1.45;;;;;;;;;;5020117;28;20046;-79
2022/07/31 13:13:51;;;;;;;4.82;1.40;;;;;;;;;;5023018;28;20388;-78
2022/07/31 13:16:17;;;;;;;4.68;1.38;;;;;;;;;;5030282;28;20058;-79
2022/07/31 13:18:44;;;;;;;2.17;1.10;;;;;;;;;;5034799;28;20038;-78
2022/07/31 13:21:10;;;;;;;3.63;1.40;;;;;;;;;;5033053;28;20033;-80
2022/07/31 13:23:36;;;;;;;2.22;1.45;;;;;;;;;;5019119;28;20054;-80
2022/07/31 13:26:03;;;;;;;3.40;1.55;;;;;;;;;;5015436;28;20144;-78
2022/07/31 13:28:30;;;;;;;2.75;1.48;;;;;;;;;;5017864;28;20104;-78
2022/07/31 13:30:56;;;;;;;5.27;1.57;;;;;;;;;;4972141;28;1286708;-78
2022/07/31 13:33:23;;;;;;;5.78;1.30;;;;;;;;;;5012994;28;20092;-77
2022/07/31 13:35:49;;;;;;;4.63;1.60;;;;;;;;;;5013352;28;20529;-78
2022/07/31 13:38:16;;;;;;;2.97;1.13;;;;;;;;;;5015635;28;20136;-79
2022/07/31 13:43:27;;;;;;;5.70;1.33;;;;;;;;;;5017895;28;20046;-78
2022/07/31 13:45:54;;;;;;;6.53;1.48;;;;;;;;;;5020914;28;20042;-78
2022/07/31 13:48:20;;;;;;;2.78;1.30;;;;;;;;;;5023834;28;20549;-79
2022/07/31 13:50:47;;;;;;;3.63;1.38;;;;;;;;;;5019497;28;20050;-78
2022/07/31 13:53:13;;;;;;;2.28;1.40;;;;;;;;;;5023112;28;20053;-78
2022/07/31 13:55:40;;;;;;;5.88;1.40;;;;;;;;;;5021890;28;20073;-78
2022/07/31 13:58:07;;;;;;;2.35;1.38;;;;;;;;;;5023311;28;20046;-78
2022/07/31 14:00:33;;;;;;;2.47;1.30;;;;;;;;;;5015475;28;20070;-79
2022/07/31 14:03:00;;;;;;;2.55;1.50;;;;;;;;;;5020143;28;20099;-79
2022/07/31 14:05:26;;;;;;;3.58;1.40;;;;;;;;;;5023066;28;20050;-80
2022/07/31 14:07:53;;;;;;;2.75;1.40;;;;;;;;;;5022814;28;20046;-79
2022/07/31 14:10:20;;;;;;;3.03;1.33;;;;;;;;;;5023883;28;20046;-79
2022/07/31 14:12:47;;;;;;;2.67;1.30;;;;;;;;;;5017522;28;20060;-79
2022/07/31 14:15:14;;;;;;;6.55;1.50;;;;;;;;;;5014369;28;20077;-79
2022/07/31 14:17:40;;;;;;;3.05;1.40;;;;;;;;;;5015481;28;20104;-78
2022/07/31 14:20:07;;;;;;;2.80;1.50;;;;;;;;;;5015757;28;20057;-78
2022/07/31 14:22:33;;;;;;;5.30;1.45;;;;;;;;;;5015020;28;20082;-78
2022/07/31 14:25:00;;;;;;;3.80;1.38;;;;;;;;;;5016075;28;20077;-79
2022/07/31 14:27:26;;;;;;;2.38;1.80;;;;;;;;;;5016195;28;20080;-78
2022/07/31 14:29:52;;;;;;;6.70;1.60;;;;;;;;;;5015322;28;20085;-78
2022/07/31 14:32:20;;;;;;;5.72;1.60;;;;;;;;;;5013667;28;20136;-78
2022/07/31 14:34:48;;;;;;;2.55;1.50;;;;;;;;;;5013781;28;20056;-77
2022/07/31 14:37:15;;;;;;;4.78;1.42;;;;;;;;;;5013549;28;20092;-78
2022/07/31 14:39:41;;;;;;;2.75;1.40;;;;;;;;;;5014846;28;20080;-78